Time;durP1;ratioP1;P1;durP2;ratioP2;P2;SDS_P1;SDS_P2;PMS_P1;PMS_P2;Temp;Humidity;BMP_temperature;BMP_pressure;BME280_temperature;BME280_humidity;BME280_pressure;Samples;Min_cycle;Max_cycle;Signal;HPM_P1;HPM_P2
2022/05/07 00:02:13;;;;;;;20.43;8.03;;;;;;;11.75;66.95;99554.56;1691430;84;20999;-76
2022/05/07 00:04:40;;;;;;;18.25;8.63;;;;;;;11.70;69.84;99559.05;1698708;84;21068;-76
2022/05/07 00:07:07;;;;;;;17.35;8.20;;;;;;;11.66;69.63;99560.45;1692400;84;21483;-76
2022/05/07 00:09:35;;;;;;;17.35;8.45;;;;;;;11.67;68.05;99555.19;1698837;84;20972;-77
2022/05/07 00:12:03;;;;;;;19.35;8.28;;;;;;;11.65;67.86;99556.98;1692557;84;20996;-76
2022/05/07 00:14:29;;;;;;;18.37;7.80;;;;;;;11.62;70.05;99553.58;1696485;84;20995;-76
2022/05/07 00:19:41;;;;;;;18.48;8.95;;;;;;;11.61;69.88;99550.13;1697556;84;20999;-77
2022/05/07 00:22:08;;;;;;;15.18;8.03;;;;;;;11.60;68.85;99552.33;1686569;84;20962;-76
2022/05/07 00:24:34;;;;;;;15.43;8.48;;;;;;;11.59;69.73;99553.20;1696775;84;20976;-75
2022/05/07 00:27:00;;;;;;;16.80;7.87;;;;;;;11.63;70.10;99556.61;1690641;83;21449;-76
2022/05/07 00:29:27;;;;;;;17.70;7.92;;;;;;;11.64;70.87;99554.39;1695362;84;21036;-75
2022/05/07 00:31:54;;;;;;;18.12;7.87;;;;;;;11.67;70.57;99556.49;1684629;84;21477;-76
2022/05/07 00:34:21;;;;;;;16.80;8.18;;;;;;;11.68;70.37;99546.95;1697291;84;20973;-76
2022/05/07 00:36:51;;;;;;;18.60;9.00;;;;;;;11.65;69.94;99540.05;1686081;83;21001;-76
2022/05/07 00:39:17;;;;;;;18.48;9.03;;;;;;;11.63;70.47;99544.88;1696012;84;21878;-76
2022/05/07 00:41:44;;;;;;;16.77;8.80;;;;;;;11.59;70.53;99538.03;1692613;83;20956;-76
2022/05/07 00:44:11;;;;;;;18.67;8.30;;;;;;;11.58;71.72;99537.61;1697098;83;20988;-76
2022/05/07 00:46:37;;;;;;;15.50;8.75;;;;;;;11.58;70.71;99542.81;1677090;84;21469;-76
2022/05/07 00:49:04;;;;;;;17.77;9.13;;;;;;;11.55;71.78;99533.33;1680068;84;21031;-76
2022/05/07 00:51:34;;;;;;;18.02;9.60;;;;;;;11.55;72.59;99531.58;1690463;84;20973;-75
2022/05/07 00:54:07;;;;;;;15.08;9.08;;;;;;;11.57;71.71;99535.91;1681642;84;21036;-76
2022/05/07 00:56:37;;;;;;;17.73;9.38;;;;;;;11.55;72.02;99529.42;1691174;84;20989;-75
2022/05/07 00:59:07;;;;;;;15.85;9.58;;;;;;;11.54;72.67;99534.24;1672757;84;21095;-77
2022/05/07 01:01:33;;;;;;;15.40;8.80;;;;;;;11.53;72.39;99534.66;1691888;84;21475;-76
2022/05/07 01:04:00;;;;;;;18.77;8.65;;;;;;;11.50;71.98;99532.14;1692751;84;20995;-75
2022/05/07 01:06:30;;;;;;;14.05;7.95;;;;;;;11.42;71.82;99534.48;1696942;83;21502;-76
2022/05/07 01:08:57;;;;;;;17.48;8.30;;;;;;;11.35;72.06;99531.16;1692719;84;21597;-76
2022/05/07 01:11:25;;;;;;;16.82;9.53;;;;;;;11.33;72.17;99529.03;1688947;84;21074;-76
2022/05/07 01:13:54;;;;;;;17.65;9.38;;;;;;;11.30;72.20;99523.88;1694543;83;21028;-78
2022/05/07 01:16:24;;;;;;;20.85;9.28;;;;;;;11.25;72.45;99518.78;1697643;84;21032;-80
2022/05/07 01:18:50;;;;;;;19.42;9.88;;;;;;;11.19;72.67;99520.22;1696792;84;21011;-76
2022/05/07 01:21:17;;;;;;;14.83;7.75;;;;;;;11.15;72.16;99527.22;1682360;84;21523;-76
2022/05/07 01:23:50;;;;;;;18.85;8.30;;;;;;;11.13;73.22;99529.00;1696470;83;21311;-76
2022/05/07 01:26:20;;;;;;;15.93;7.33;;;;;;;11.13;73.72;99522.95;1684633;84;21063;-78
2022/05/07 01:28:45;;;;;;;16.02;8.60;;;;;;;11.14;72.80;99528.55;1697241;84;21012;-76
2022/05/07 01:31:12;;;;;;;19.35;9.18;;;;;;;11.17;73.12;99531.55;1697694;83;21068;-78
2022/05/07 01:33:39;;;;;;;18.75;7.85;;;;;;;11.17;72.01;99530.25;1697225;84;20976;-76
2022/05/07 01:36:10;;;;;;;22.42;8.33;;;;;;;11.17;72.36;99528.50;1688198;83;21032;-76
2022/05/07 01:38:38;;;;;;;58.35;9.83;;;;;;;11.18;72.85;99526.75;1696834;84;21415;-75
2022/05/07 01:41:04;;;;;;;65.75;10.45;;;;;;;11.21;73.13;99528.00;1677644;83;20997;-76
2022/05/07 01:43:34;;;;;;;88.10;11.63;;;;;;;11.23;72.91;99527.52;1718173;82;20968;-76
2022/05/07 01:46:01;;;;;;;64.55;9.55;;;;;;;11.27;73.62;99527.41;1700712;82;21012;-77
2022/05/07 01:48:29;;;;;;;74.87;10.68;;;;;;;11.30;73.47;99519.98;1701078;84;20947;-76
2022/05/07 01:50:56;;;;;;;66.17;11.83;;;;;;;11.34;73.83;99516.45;1714607;82;21008;-76
2022/05/07 01:53:24;;;;;;;83.70;12.25;;;;;;;11.37;73.27;99515.06;1714170;82;21016;-76
2022/05/07 01:55:53;;;;;;;93.33;12.75;;;;;;;11.39;73.44;99523.70;1703623;82;21009;-75
2022/05/07 01:58:21;;;;;;;78.07;11.90;;;;;;;11.38;73.27;99523.30;1712779;82;21554;-76
2022/05/07 02:00:48;;;;;;;53.58;11.10;;;;;;;11.37;73.64;99522.02;1700911;82;21045;-77
2022/05/07 02:03:15;;;;;;;25.48;8.68;;;;;;;11.32;73.22;99519.08;1690768;82;20993;-75
2022/05/07 02:05:42;;;;;;;25.52;9.35;;;;;;;11.27;73.75;99522.66;1711443;84;21563;-76
2022/05/07 02:08:09;;;;;;;22.73;9.00;;;;;;;11.18;73.17;99519.82;1690861;84;21520;-77
2022/05/07 02:10:36;;;;;;;19.45;9.28;;;;;;;11.10;73.33;99517.38;1699701;84;21087;-76
2022/05/07 02:13:03;;;;;;;21.73;9.10;;;;;;;11.03;73.24;99515.77;1692647;84;21053;-75
2022/05/07 02:15:31;;;;;;;17.02;9.48;;;;;;;10.94;71.75;99518.55;1684903;84;21665;-75
2022/05/07 02:17:59;;;;;;;22.05;9.08;;;;;;;10.87;74.62;99514.38;1691919;84;21501;-75
2022/05/07 02:20:25;;;;;;;19.50;9.58;;;;;;;10.77;73.20;99516.29;1695718;83;20998;-77
2022/05/07 02:22:57;;;;;;;25.77;9.80;;;;;;;10.71;75.19;99513.36;1694381;84;21065;-75
2022/05/07 02:25:24;;;;;;;18.60;9.05;;;;;;;10.66;74.58;99515.63;1676863;84;20967;-76
2022/05/07 02:27:53;;;;;;;19.10;9.15;;;;;;;10.63;76.58;99517.00;1695959;84;20959;-76
2022/05/07 02:30:20;;;;;;;19.45;9.33;;;;;;;10.60;76.38;99517.04;1700929;84;20999;-77
2022/05/07 02:32:47;;;;;;;17.40;8.03;;;;;;;10.57;74.32;99514.06;1677530;85;21536;-77
2022/05/07 02:35:16;;;;;;;17.70;8.13;;;;;;;10.53;74.12;99511.11;1673157;84;21052;-77
2022/05/07 02:37:43;;;;;;;18.62;8.73;;;;;;;10.50;75.71;99512.45;1696216;84;21059;-76
2022/05/07 02:40:11;;;;;;;16.67;8.00;;;;;;;10.49;76.19;99518.09;1672604;85;21064;-75
2022/05/07 02:42:39;;;;;;;19.05;8.78;;;;;;;10.48;77.53;99521.56;1692145;84;21027;-76
2022/05/07 02:45:12;;;;;;;24.77;8.95;;;;;;;10.51;76.76;99518.92;1693834;84;21050;-76
2022/05/07 02:47:41;;;;;;;17.80;8.83;;;;;;;10.55;75.57;99527.53;1684465;85;21013;-76
2022/05/07 02:50:11;;;;;;;25.80;9.23;;;;;;;10.57;75.81;99531.41;1686922;84;21491;-76
2022/05/07 02:52:38;;;;;;;22.55;8.45;;;;;;;10.59;75.33;99536.99;1691222;84;20988;-78
2022/05/07 02:55:09;;;;;;;23.22;8.48;;;;;;;10.59;76.67;99532.24;1699319;84;20963;-76
2022/05/07 02:57:37;;;;;;;21.00;7.83;;;;;;;10.63;76.64;99533.90;1673667;85;21492;-77
2022/05/07 03:00:05;;;;;;;22.15;8.55;;;;;;;10.67;76.23;99529.05;1693755;84;20993;-77
2022/05/07 03:02:33;;;;;;;19.45;8.23;;;;;;;10.69;76.14;99524.23;1700529;84;20960;-75
2022/05/07 03:05:00;;;;;;;19.95;8.43;;;;;;;10.72;76.14;99524.19;1686176;84;21485;-76
2022/05/07 03:07:27;;;;;;;18.05;8.85;;;;;;;10.77;76.04;99529.74;1685866;84;21474;-75
2022/05/07 03:09:55;;;;;;;16.32;8.88;;;;;;;10.80;76.03;99530.52;1683244;85;21480;-75
2022/05/07 03:12:21;;;;;;;15.63;8.55;;;;;;;10.78;75.63;99534.89;1684710;84;21008;-75
2022/05/07 03:14:48;;;;;;;21.15;9.30;;;;;;;10.78;74.88;99532.74;1694860;84;21056;-76
2022/05/07 03:17:14;;;;;;;18.02;8.75;;;;;;;10.77;75.89;99539.70;1700860;83;21514;-76
2022/05/07 03:19:41;;;;;;;16.57;8.75;;;;;;;10.76;76.00;99541.86;1700525;82;20972;-75
2022/05/07 03:22:07;;;;;;;22.27;9.60;;;;;;;10.74;76.55;99543.22;1680669;84;21034;-76
2022/05/07 03:24:38;;;;;;;20.35;9.30;;;;;;;10.73;76.37;99548.44;1685922;85;21532;-76
2022/05/07 03:27:04;;;;;;;22.87;8.58;;;;;;;10.73;77.32;99545.84;1666488;85;21017;-76
2022/05/07 03:29:30;;;;;;;18.20;9.78;;;;;;;10.73;77.36;99548.44;1697105;84;21527;-75
2022/05/07 03:31:58;;;;;;;17.12;9.60;;;;;;;10.71;77.18;99549.77;1698744;84;20988;-76
2022/05/07 03:34:25;;;;;;;21.30;9.73;;;;;;;10.68;77.47;99552.44;1678699;84;21053;-76
2022/05/07 03:36:52;;;;;;;22.80;9.90;;;;;;;10.69;76.65;99559.78;1698016;84;21510;-76
2022/05/07 03:39:19;;;;;;;17.20;9.65;;;;;;;10.68;76.55;99560.66;1694619;84;21524;-76
2022/05/07 03:41:45;;;;;;;18.00;9.50;;;;;;;10.69;76.56;99559.78;1697656;84;20991;-77
2022/05/07 03:44:13;;;;;;;24.92;9.70;;;;;;;10.71;76.56;99568.42;1695103;84;20957;-78
2022/05/07 03:46:39;;;;;;;23.42;10.20;;;;;;;10.72;76.75;99566.22;1694150;84;20996;-75
2022/05/07 03:49:06;;;;;;;16.85;8.43;;;;;;;10.73;77.72;99561.44;1697715;84;20976;-76
2022/05/07 03:53:29;;;;;;;17.87;10.10;;;;;;;10.73;76.90;99556.24;1698343;84;20996;-75
2022/05/07 03:54:05;;;;;;;15.98;8.98;;;;;;;10.72;76.32;99552.80;1690800;84;20972;-76
2022/05/07 03:56:32;;;;;;;13.53;8.65;;;;;;;10.77;75.99;99558.35;1698458;84;21455;-75
2022/05/07 03:58:59;;;;;;;14.53;8.58;;;;;;;10.81;76.18;99566.06;1694224;84;21531;-75
2022/05/07 04:01:36;;;;;;;17.30;8.45;;;;;;;10.88;76.59;99570.27;1696708;84;21531;-76
2022/05/07 04:04:03;;;;;;;21.37;9.18;;;;;;;10.88;76.60;99566.37;1693759;84;20964;-76
2022/05/07 04:06:30;;;;;;;17.52;8.70;;;;;;;10.93;76.35;99564.52;1698436;84;21020;-76
2022/05/07 04:08:58;;;;;;;19.02;8.95;;;;;;;11.02;76.16;99565.23;1696746;84;21515;-76
2022/05/07 04:11:25;;;;;;;19.42;8.63;;;;;;;11.10;76.24;99565.93;1698012;84;21471;-76
2022/05/07 04:13:54;;;;;;;15.72;8.85;;;;;;;11.15;75.36;99564.95;1687972;84;21503;-76
2022/05/07 04:16:22;;;;;;;16.10;8.05;;;;;;;11.22;76.25;99560.51;1689330;85;21563;-76
2022/05/07 04:18:52;;;;;;;15.63;8.38;;;;;;;11.31;76.11;99559.00;1701024;84;21009;-76
2022/05/07 04:21:20;;;;;;;17.35;9.03;;;;;;;11.42;75.95;99559.21;1687924;84;21013;-77
2022/05/07 04:23:48;;;;;;;20.68;9.35;;;;;;;11.51;75.82;99558.58;1693435;84;21006;-77
2022/05/07 04:26:15;;;;;;;18.50;8.80;;;;;;;11.60;75.39;99564.47;1684763;85;21026;-76
2022/05/07 04:28:43;;;;;;;18.95;9.40;;;;;;;11.63;74.87;99562.66;1693747;83;21022;-76
2022/05/07 04:31:11;;;;;;;16.52;8.78;;;;;;;11.65;74.41;99559.58;1699613;84;21349;-76
2022/05/07 04:33:37;;;;;;;16.02;8.58;;;;;;;11.70;74.42;99560.34;1684447;85;21081;-76
2022/05/07 04:36:06;;;;;;;14.45;9.00;;;;;;;11.78;74.25;99561.91;1689493;84;21498;-76
2022/05/07 04:38:33;;;;;;;18.85;8.68;;;;;;;11.85;74.73;99563.48;1684422;85;21017;-76
2022/05/07 04:41:00;;;;;;;17.95;10.00;;;;;;;11.90;74.57;99568.20;1690888;84;20986;-76
2022/05/07 04:43:28;;;;;;;15.88;8.60;;;;;;;11.97;74.36;99573.66;1712788;82;21001;-76
2022/05/07 04:45:55;;;;;;;21.90;9.85;;;;;;;12.05;73.69;99578.70;1683985;84;20970;-76
2022/05/07 04:48:22;;;;;;;17.90;9.05;;;;;;;12.10;73.28;99583.37;1700647;84;21534;-75
2022/05/07 04:50:49;;;;;;;15.40;9.00;;;;;;;12.13;73.45;99584.13;1694230;84;21492;-77
2022/05/07 04:53:17;;;;;;;14.43;9.00;;;;;;;12.22;73.11;99580.47;1698468;84;21019;-76
2022/05/07 04:55:45;;;;;;;14.47;8.35;;;;;;;12.32;72.87;99579.34;1701045;84;20975;-75
2022/05/07 04:58:13;;;;;;;15.18;8.50;;;;;;;12.41;72.36;99574.79;1700884;84;21106;-75
2022/05/07 05:00:40;;;;;;;15.00;8.13;;;;;;;12.46;71.67;99580.77;1678854;85;20934;-75
2022/05/07 05:03:16;;;;;;;18.77;9.00;;;;;;;12.52;71.42;99585.82;1701005;84;21537;-77
2022/05/07 05:05:44;;;;;;;14.28;8.03;;;;;;;12.60;71.08;99584.33;1699433;84;20975;-76
2022/05/07 05:08:13;;;;;;;20.80;9.03;;;;;;;12.62;70.45;99588.59;1696620;84;21475;-76
2022/05/07 05:10:39;;;;;;;15.40;8.40;;;;;;;12.59;70.26;99589.97;1695150;84;20985;-76
2022/05/07 05:13:06;;;;;;;17.98;8.43;;;;;;;12.63;69.71;99595.52;1699509;84;21000;-75
2022/05/07 05:15:33;;;;;;;20.52;8.43;;;;;;;12.61;70.11;99593.84;1679485;85;21009;-77
2022/05/07 05:18:02;;;;;;;17.82;9.08;;;;;;;12.69;70.12;99599.72;1695402;83;20948;-76
2022/05/07 05:20:29;;;;;;;19.57;8.15;;;;;;;12.81;70.24;99603.77;1684391;83;21017;-75
2022/05/07 05:22:57;;;;;;;22.77;9.53;;;;;;;12.93;70.06;99604.31;1701945;83;21156;-78
2022/05/07 05:25:26;;;;;;;14.98;8.10;;;;;;;12.95;69.04;99601.64;1706560;83;21498;-75
2022/05/07 05:27:52;;;;;;;17.05;9.00;;;;;;;12.90;69.01;99600.47;1698436;83;21000;-76
2022/05/07 05:30:20;;;;;;;17.85;8.80;;;;;;;13.00;69.12;99607.61;1732226;82;20989;-76
2022/05/07 05:32:47;;;;;;;13.32;8.45;;;;;;;13.08;68.38;99606.11;1696716;84;20983;-75
2022/05/07 05:35:14;;;;;;;18.80;8.23;;;;;;;13.16;68.50;99602.83;1690002;84;21563;-77
2022/05/07 05:37:42;;;;;;;22.62;8.28;;;;;;;13.20;68.02;99610.98;1705969;83;21015;-76
2022/05/07 05:40:09;;;;;;;17.17;8.80;;;;;;;13.28;68.04;99608.16;1690197;85;21532;-76
2022/05/07 05:42:37;;;;;;;17.87;9.20;;;;;;;13.36;68.04;99603.61;1689916;84;21050;-80
2022/05/07 05:45:08;;;;;;;17.48;8.45;;;;;;;13.46;68.45;99612.05;1690273;84;21017;-76
2022/05/07 05:47:34;;;;;;;18.73;8.65;;;;;;;13.59;68.24;99604.27;1702687;83;20982;-77
2022/05/07 05:50:01;;;;;;;18.42;8.73;;;;;;;13.66;67.80;99611.00;1696089;84;21002;-77
2022/05/07 05:52:29;;;;;;;17.07;8.55;;;;;;;13.72;67.46;99605.59;1684246;84;21012;-76
2022/05/07 05:54:57;;;;;;;15.68;8.85;;;;;;;13.83;67.19;99609.67;1697282;84;20960;-77
2022/05/07 05:57:24;;;;;;;18.82;7.90;;;;;;;13.97;66.91;99611.86;1706480;84;21014;-76
2022/05/07 05:59:51;;;;;;;19.70;8.35;;;;;;;14.02;66.30;99609.95;1698086;83;21052;-77
2022/05/07 06:02:18;;;;;;;14.23;8.28;;;;;;;14.10;66.26;99611.86;1689834;84;20997;-75
2022/05/07 06:04:56;;;;;;;15.58;7.62;;;;;;;14.24;65.60;99602.28;1701116;84;21039;-77
2022/05/07 06:07:24;;;;;;;18.67;7.42;;;;;;;14.38;65.35;99604.45;1689944;84;21525;-76
2022/05/07 06:09:53;;;;;;;10.82;6.47;;;;;;;14.51;64.65;99609.23;1700509;84;21505;-75
2022/05/07 06:12:21;;;;;;;12.60;6.62;;;;;;;14.70;63.97;99608.21;1706155;83;20975;-77
2022/05/07 06:14:54;;;;;;;14.58;6.35;;;;;;;14.84;63.91;99612.98;1700430;83;20963;-76
2022/05/07 06:17:22;;;;;;;12.07;6.97;;;;;;;14.98;64.39;99605.08;1703542;84;21753;-78
2022/05/07 06:19:50;;;;;;;11.65;6.42;;;;;;;15.02;63.86;99602.75;1703278;83;21004;-77
2022/05/07 06:22:18;;;;;;;13.35;6.42;;;;;;;15.07;62.94;99612.62;1695165;84;20972;-77
2022/05/07 06:27:32;;;;;;;12.37;6.60;;;;;;;15.31;62.27;99614.81;1698215;84;21044;-77
2022/05/07 06:30:04;;;;;;;13.18;6.20;;;;;;;15.40;62.67;99611.87;1684002;84;21013;-78
2022/05/07 06:32:36;;;;;;;16.85;6.58;;;;;;;15.50;62.74;99618.48;1667023;84;21025;-78
2022/05/07 06:35:06;;;;;;;9.53;5.80;;;;;;;15.68;62.29;99613.47;1693488;84;21517;-78
2022/05/07 06:37:37;;;;;;;17.70;6.15;;;;;;;15.78;61.85;99610.08;1700305;84;21019;-76
2022/05/07 06:40:06;;;;;;;10.88;5.87;;;;;;;15.91;61.69;99613.91;1696202;84;21041;-76
2022/05/07 06:42:35;;;;;;;11.88;5.83;;;;;;;16.06;59.97;99610.70;1698881;84;20996;-77
2022/05/07 06:45:04;;;;;;;13.05;6.95;;;;;;;16.20;60.17;99610.62;1686722;85;21537;-75
2022/05/07 06:47:32;;;;;;;12.95;7.10;;;;;;;16.25;60.14;99612.15;1687097;84;21037;-76
2022/05/07 06:50:00;;;;;;;16.55;8.10;;;;;;;16.38;59.13;99613.80;1685900;84;21516;-76
2022/05/07 06:52:28;;;;;;;16.15;8.20;;;;;;;16.47;58.37;99613.88;1669952;85;21017;-76
2022/05/07 06:54:55;;;;;;;14.15;8.90;;;;;;;16.56;57.98;99608.72;1683813;85;21468;-75
2022/05/07 06:57:24;;;;;;;16.87;9.53;;;;;;;16.64;57.18;99602.69;1686375;84;21123;-76
2022/05/07 06:59:52;;;;;;;19.20;10.20;;;;;;;16.65;57.13;99603.07;1685946;85;21136;-78
2022/05/07 07:02:19;;;;;;;21.05;12.07;;;;;;;16.72;57.49;99604.53;1707817;82;21041;-76
2022/05/07 07:04:45;;;;;;;23.75;12.68;;;;;;;16.73;57.20;99606.22;1710110;82;20985;-76
2022/05/07 07:07:12;;;;;;;25.75;15.80;;;;;;;16.80;56.33;99600.27;1710438;82;21049;-75
2022/05/07 07:09:38;;;;;;;19.40;12.93;;;;;;;16.97;57.16;99599.56;1708048;82;20997;-76
2022/05/07 07:12:06;;;;;;;18.67;10.70;;;;;;;17.09;56.18;99605.16;1715721;82;20997;-77
2022/05/07 07:14:33;;;;;;;16.70;10.88;;;;;;;17.30;56.55;99603.34;1694456;82;20969;-76
2022/05/07 07:17:00;;;;;;;19.02;10.58;;;;;;;17.52;54.83;99603.69;1707839;82;21015;-78
2022/05/07 07:19:26;;;;;;;17.40;9.00;;;;;;;17.79;55.28;99609.94;1701619;82;21564;-77
2022/05/07 07:21:53;;;;;;;13.40;6.35;;;;;;;17.99;53.15;99604.61;1687781;85;21013;-76
2022/05/07 07:24:21;;;;;;;11.85;5.72;;;;;;;18.07;50.56;99601.62;1704081;84;20995;-76
2022/05/07 07:26:48;;;;;;;11.30;6.10;;;;;;;18.11;52.90;99599.23;1703477;84;20994;-75
2022/05/07 07:29:14;;;;;;;10.70;6.30;;;;;;;18.16;51.82;99601.62;1699210;84;20983;-76
2022/05/07 07:31:41;;;;;;;13.18;6.87;;;;;;;18.24;53.08;99598.16;1689879;84;20985;-75
2022/05/07 07:34:07;;;;;;;13.80;6.85;;;;;;;18.30;50.85;99599.17;1700529;84;21006;-77
2022/05/07 07:36:34;;;;;;;10.28;7.12;;;;;;;18.38;51.04;99600.99;1689757;85;21497;-76
2022/05/07 07:39:04;;;;;;;13.50;7.50;;;;;;;18.40;51.29;99593.87;1702201;84;21053;-77
2022/05/07 07:41:29;;;;;;;12.25;6.17;;;;;;;18.53;50.81;99591.47;1705978;84;21046;-76
2022/05/07 07:43:57;;;;;;;12.05;6.45;;;;;;;18.68;50.35;99591.14;1689764;84;21464;-76
2022/05/07 07:49:09;;;;;;;16.50;6.85;;;;;;;18.83;50.14;99602.26;1697325;84;21477;-77
2022/05/07 07:51:36;;;;;;;12.73;6.92;;;;;;;18.88;50.37;99592.35;1705352;84;20960;-76
2022/05/07 07:54:04;;;;;;;17.75;6.78;;;;;;;18.94;49.56;99596.90;1689873;84;20985;-76
2022/05/07 07:56:31;;;;;;;10.98;5.85;;;;;;;19.07;49.66;99588.75;1687667;84;20987;-75
2022/05/07 07:58:57;;;;;;;14.85;6.42;;;;;;;19.23;49.03;99589.64;1723369;81;21020;-76
2022/05/07 08:01:24;;;;;;;10.80;5.83;;;;;;;19.34;46.87;99589.53;1706453;84;20983;-76
2022/05/07 08:03:50;;;;;;;9.43;5.35;;;;;;;19.43;47.75;99591.22;1689901;84;21461;-76
2022/05/07 08:06:17;;;;;;;11.43;5.92;;;;;;;19.57;48.28;99586.52;1705062;84;20990;-77
2022/05/07 08:11:40;;;;;;;10.82;5.45;;;;;;;19.81;47.27;99581.70;1689293;84;21049;-76
2022/05/07 08:14:08;;;;;;;8.93;5.72;;;;;;;19.94;45.87;99583.69;1705161;83;20987;-77
2022/05/07 08:16:36;;;;;;;9.28;5.55;;;;;;;20.02;47.14;99582.30;1706507;83;20979;-76
2022/05/07 08:19:04;;;;;;;11.55;5.62;;;;;;;20.18;45.64;99587.56;1705560;83;21483;-76
2022/05/07 08:21:30;;;;;;;13.38;5.72;;;;;;;20.31;46.23;99583.74;1695865;83;21568;-77
2022/05/07 08:23:57;;;;;;;11.53;5.92;;;;;;;20.51;46.66;99573.82;1695939;84;20991;-76
2022/05/07 08:26:24;;;;;;;11.33;6.10;;;;;;;20.67;44.75;99573.33;1697165;83;21018;-76
2022/05/07 08:28:52;;;;;;;11.03;6.35;;;;;;;20.81;46.53;99572.50;1696076;84;21125;-77
2022/05/07 08:31:23;;;;;;;14.00;6.45;;;;;;;20.95;45.82;99578.28;1698791;84;20995;-76
2022/05/07 08:33:51;;;;;;;10.50;5.55;;;;;;;21.01;44.74;99580.58;1695400;84;21023;-77
2022/05/07 08:36:17;;;;;;;13.10;5.83;;;;;;;20.97;44.42;99582.55;1686048;85;21024;-79
2022/05/07 08:38:44;;;;;;;13.30;6.00;;;;;;;21.04;43.38;99581.22;1686615;84;21017;-76
2022/05/07 08:41:11;;;;;;;12.63;6.75;;;;;;;21.15;44.04;99579.27;1686154;84;20988;-77
2022/05/07 08:43:43;;;;;;;11.97;6.22;;;;;;;21.28;43.88;99582.47;1686479;84;20965;-77
2022/05/07 08:46:16;;;;;;;10.58;6.35;;;;;;;21.41;44.08;99577.66;1686139;84;21005;-76
2022/05/07 08:48:47;;;;;;;11.90;6.75;;;;;;;21.61;44.10;99577.76;1686791;84;21020;-77
2022/05/07 08:51:16;;;;;;;11.38;6.78;;;;;;;21.53;43.89;99583.16;1686163;85;21052;-76
2022/05/07 08:53:45;;;;;;;13.03;6.75;;;;;;;21.39;42.11;99573.41;1686681;84;21000;-79
2022/05/07 08:56:13;;;;;;;10.72;6.40;;;;;;;21.43;42.86;99581.08;1686335;84;20994;-76
2022/05/07 08:58:49;;;;;;;12.55;6.08;;;;;;;21.42;41.60;99575.84;1686393;85;21600;-75
2022/05/07 09:01:16;;;;;;;8.75;5.30;;;;;;;21.52;41.80;99574.84;1686166;85;20997;-77
2022/05/07 09:03:45;;;;;;;10.25;6.20;;;;;;;21.53;42.50;99577.39;1686654;84;20997;-76
2022/05/07 09:06:22;;;;;;;11.33;5.53;;;;;;;21.64;42.33;99569.61;1685844;84;21024;-76
2022/05/07 09:08:50;;;;;;;9.85;5.40;;;;;;;21.74;42.51;99573.84;1671745;85;20969;-78
2022/05/07 09:11:17;;;;;;;15.43;6.15;;;;;;;21.85;43.01;99564.76;1680108;84;21506;-76
2022/05/07 09:13:45;;;;;;;11.53;5.55;;;;;;;21.93;40.51;99566.07;1693500;84;21021;-76
2022/05/07 09:16:12;;;;;;;14.23;5.72;;;;;;;21.91;41.19;99566.16;1687996;85;21024;-76
2022/05/07 09:18:47;;;;;;;9.95;5.35;;;;;;;21.95;41.58;99561.05;1687911;85;20977;-78
2022/05/07 09:21:16;;;;;;;9.03;4.80;;;;;;;21.89;41.62;99551.34;1706181;83;20966;-76
2022/05/07 09:23:48;;;;;;;10.15;5.17;;;;;;;22.08;41.84;99554.94;1702594;84;20979;-77
2022/05/07 09:26:33;;;;;;;7.87;4.90;;;;;;;22.20;40.91;99552.80;1687581;85;21003;-75
2022/05/07 09:29:01;;;;;;;11.22;5.33;;;;;;;22.37;40.88;99559.20;1698782;84;20999;-77
2022/05/07 09:31:33;;;;;;;14.25;6.05;;;;;;;22.50;41.02;99549.97;1688228;84;21038;-77
2022/05/07 09:36:56;;;;;;;10.13;5.15;;;;;;;22.48;38.71;99549.69;1692577;84;21018;-76
2022/05/07 09:39:25;;;;;;;16.27;5.33;;;;;;;22.55;40.45;99545.20;1661536;85;21524;-77
2022/05/07 09:41:54;;;;;;;6.78;4.30;;;;;;;22.47;39.81;99548.00;1689622;84;20993;-78
2022/05/07 09:44:24;;;;;;;7.00;4.47;;;;;;;22.54;39.73;99541.31;1706012;84;20971;-77
2022/05/07 09:46:50;;;;;;;10.50;4.80;;;;;;;22.56;39.53;99540.28;1679512;84;21540;-78
2022/05/07 09:49:19;;;;;;;11.65;5.00;;;;;;;22.67;39.81;99542.19;1697546;84;20959;-76
2022/05/07 09:51:46;;;;;;;8.38;5.20;;;;;;;22.76;39.41;99536.27;1706438;83;20995;-77
2022/05/07 09:59:45;;;;;;;9.80;4.42;;;;;;;23.14;38.50;99530.59;1688834;84;21567;-76
2022/05/07 10:02:23;;;;;;;11.12;6.85;;;;;;;23.26;37.83;99528.88;1706454;83;20992;-76
2022/05/07 10:05:10;;;;;;;7.97;4.50;;;;;;;23.24;38.17;99519.73;1689760;84;21466;-77
2022/05/07 10:07:42;;;;;;;8.45;4.17;;;;;;;23.32;38.00;99518.70;1686986;84;20987;-76
2022/05/07 10:10:28;;;;;;;7.22;4.30;;;;;;;23.42;38.47;99509.61;1702787;84;21479;-76
2022/05/07 10:12:59;;;;;;;9.55;4.55;;;;;;;23.61;38.47;99516.59;1701769;84;20967;-77
2022/05/07 10:15:27;;;;;;;11.75;5.83;;;;;;;23.78;36.22;99504.79;1697200;84;20982;-79
2022/05/07 10:18:03;;;;;;;9.13;4.45;;;;;;;23.94;36.52;99508.48;1699946;84;21007;-77
2022/05/07 10:20:43;;;;;;;7.08;3.60;;;;;;;23.99;37.37;99503.70;1689435;84;20957;-77
2022/05/07 10:23:11;;;;;;;8.93;3.80;;;;;;;24.00;37.36;99502.72;1708735;82;21032;-77
2022/05/07 10:25:39;;;;;;;8.65;3.80;;;;;;;23.99;36.04;99501.50;1700559;83;20951;-77
2022/05/07 10:28:12;;;;;;;6.95;3.85;;;;;;;23.87;36.04;99494.45;1693828;84;20960;-78
2022/05/07 10:30:54;;;;;;;14.28;4.28;;;;;;;23.96;36.45;99500.42;1684464;85;20993;-79
2022/05/07 10:33:22;;;;;;;11.85;3.27;;;;;;;23.97;36.36;99503.42;1700877;84;21003;-75
2022/05/07 10:35:53;;;;;;;6.25;3.85;;;;;;;24.17;35.67;99496.62;1700517;84;20984;-77
2022/05/07 10:38:37;;;;;;;6.90;4.22;;;;;;;24.29;36.09;99489.53;1684592;85;21004;-76
2022/05/07 10:41:14;;;;;;;12.18;4.08;;;;;;;24.36;36.02;99488.95;1684386;84;21073;-76
2022/05/07 10:43:45;;;;;;;10.80;4.25;;;;;;;24.54;36.31;99493.87;1689597;84;21009;-76
2022/05/07 10:46:21;;;;;;;10.32;3.90;;;;;;;24.53;35.08;99485.52;1697659;84;21029;-77
2022/05/07 10:48:58;;;;;;;6.35;4.05;;;;;;;24.61;35.56;99489.75;1695115;84;21465;-75
2022/05/07 10:51:31;;;;;;;8.85;3.83;;;;;;;24.68;35.25;99483.02;1698320;84;20985;-77
2022/05/07 10:54:00;;;;;;;10.38;4.42;;;;;;;24.72;33.96;99477.81;1694569;84;21013;-77
2022/05/07 10:56:31;;;;;;;9.33;5.53;;;;;;;24.83;33.80;99473.47;1678708;84;21535;-75
2022/05/07 10:58:59;;;;;;;9.48;4.05;;;;;;;24.86;34.17;99466.10;1691330;84;21062;-77
2022/05/07 11:01:27;;;;;;;8.63;4.00;;;;;;;24.97;33.67;99465.28;1700793;83;21484;-76
2022/05/07 11:04:04;;;;;;;7.33;4.00;;;;;;;24.99;33.85;99462.02;1684817;85;21001;-76
2022/05/07 11:06:34;;;;;;;8.48;4.08;;;;;;;25.22;34.04;99458.86;1684769;85;21537;-76
2022/05/07 11:09:01;;;;;;;7.42;4.10;;;;;;;25.33;31.65;99458.02;1681778;85;21013;-78
2022/05/07 11:11:27;;;;;;;9.50;3.87;;;;;;;25.46;33.37;99456.03;1665089;85;21026;-77
2022/05/07 11:13:57;;;;;;;9.75;3.85;;;;;;;25.49;33.21;99446.97;1684896;84;21599;-77
2022/05/07 11:16:24;;;;;;;12.05;4.22;;;;;;;25.49;33.18;99447.81;1684819;85;21033;-76
2022/05/07 11:18:54;;;;;;;10.68;4.20;;;;;;;25.53;32.12;99448.41;1688373;84;22032;-79
2022/05/07 11:21:25;;;;;;;10.88;4.05;;;;;;;25.62;33.38;99443.64;1684800;85;21097;-79
2022/05/07 11:23:56;;;;;;;6.58;4.05;;;;;;;25.87;32.93;99435.81;1699957;84;20995;-76
2022/05/07 11:26:24;;;;;;;10.18;3.83;;;;;;;26.15;33.11;99435.69;1701148;84;21075;-77
2022/05/07 11:28:51;;;;;;;6.28;3.92;;;;;;;26.27;32.49;99431.64;1701319;84;21011;-75
2022/05/07 11:31:32;;;;;;;6.25;3.87;;;;;;;26.34;32.35;99432.78;1701210;84;21058;-76
2022/05/07 11:34:11;;;;;;;;;;;;;;;26.59;32.01;99426.23;1703460;84;21191;-78
2022/05/07 11:36:39;;;;;;;6.90;3.55;;;;;;;26.51;29.86;99419.36;1700937;84;20112;-77
2022/05/07 11:39:07;;;;;;;9.00;3.80;;;;;;;26.62;31.87;99423.78;1700979;84;21032;-78
2022/05/07 11:41:37;;;;;;;5.80;3.50;;;;;;;26.68;30.86;99413.91;1700875;84;21015;-76
2022/05/07 11:46:54;;;;;;;8.35;3.37;;;;;;;26.67;28.57;99418.41;1701055;84;21067;-76
2022/05/07 11:49:35;;;;;;;8.35;3.70;;;;;;;26.78;30.45;99412.99;1701044;84;20999;-77
2022/05/07 11:52:12;;;;;;;6.30;3.47;;;;;;;27.05;30.49;99399.52;1700927;84;21070;-77
2022/05/07 11:54:51;;;;;;;6.03;3.10;;;;;;;27.11;27.49;99402.13;1700991;84;20999;-77
2022/05/07 11:57:32;;;;;;;6.20;3.25;;;;;;;27.23;29.09;99394.86;1700892;84;21079;-77